createdAt,value
2019-01-12T02:41:47.039Z,0
2019-01-12T06:45:02.093Z,3
2019-01-12T06:52:32.534Z,7
2019-01-12T06:55:32.704Z,3
2019-01-12T06:58:02.839Z,7
2019-01-12T06:59:02.918Z,10
2019-01-12T06:59:34.282Z,7
2019-01-12T07:02:03.098Z,10
2019-01-12T07:02:33.096Z,7
2019-01-12T07:03:33.193Z,10
2019-01-12T07:04:33.292Z,13
2019-01-12T07:05:03.280Z,17
2019-01-12T07:06:33.399Z,23
2019-01-12T07:07:33.484Z,30
2019-01-12T07:08:03.456Z,40
2019-01-12T07:08:33.530Z,60
2019-01-12T07:09:03.521Z,67
2019-01-12T07:09:33.612Z,70
2019-01-12T07:10:33.587Z,90
2019-01-12T07:11:03.633Z,93
2019-01-12T07:11:33.683Z,107
2019-01-12T07:12:03.719Z,110
2019-01-12T07:12:33.743Z,87
2019-01-12T07:13:03.765Z,100
2019-01-12T07:13:33.800Z,123
2019-01-12T07:14:03.824Z,117
2019-01-12T07:14:33.852Z,113
2019-01-12T07:15:03.899Z,127
2019-01-12T07:15:33.973Z,147
2019-01-12T07:16:03.952Z,167
2019-01-12T07:16:34.005Z,193
2019-01-12T07:17:04.027Z,210
2019-01-12T07:17:34.028Z,213
2019-01-12T07:18:08.815Z,203
2019-01-12T07:18:34.145Z,190
2019-01-12T07:19:04.136Z,160
2019-01-12T07:19:34.204Z,137
2019-01-12T07:20:04.195Z,143
2019-01-12T07:20:34.284Z,163
2019-01-12T07:21:04.259Z,200
2019-01-12T07:21:34.369Z,213
2019-01-12T07:22:04.347Z,237
2019-01-12T07:22:34.423Z,223
2019-01-12T07:23:04.384Z,240
2019-01-12T07:24:04.445Z,230
2019-01-12T07:24:34.533Z,290
2019-01-12T07:25:04.469Z,360
2019-01-12T07:25:34.576Z,427
2019-01-12T07:26:04.544Z,460
2019-01-12T07:26:34.576Z,453
2019-01-12T07:27:04.642Z,417
2019-01-12T07:27:34.675Z,470
2019-01-12T07:28:04.659Z,453
2019-01-12T07:28:34.711Z,380
2019-01-12T07:29:04.735Z,407
2019-01-12T07:29:34.767Z,453
2019-01-12T07:30:34.863Z,427
2019-01-12T07:31:04.838Z,407
2019-01-12T07:31:34.884Z,433
2019-01-12T07:32:04.927Z,487
2019-01-12T07:32:34.945Z,570
2019-01-12T07:33:04.962Z,633
2019-01-12T07:33:35.053Z,697
2019-01-12T07:34:05.050Z,727
2019-01-12T07:34:35.109Z,747
2019-01-12T07:35:05.108Z,757
2019-01-12T07:35:35.127Z,743
2019-01-12T07:36:05.177Z,720
2019-01-12T07:36:35.238Z,750
2019-01-12T07:37:05.279Z,833
2019-01-12T07:37:35.269Z,900
2019-01-12T07:38:05.267Z,943
2019-01-12T07:38:35.368Z,947
2019-01-12T07:39:05.356Z,900
2019-01-12T07:39:35.408Z,860
2019-01-12T07:40:05.411Z,813
2019-01-12T07:40:35.491Z,807
2019-01-12T07:41:05.494Z,843
2019-01-12T07:41:35.563Z,987
2019-01-12T07:42:05.579Z,1147
2019-01-12T07:42:35.615Z,1160
2019-01-12T07:43:05.579Z,1070
2019-01-12T07:43:35.673Z,1180
2019-01-12T07:44:05.680Z,1290
2019-01-12T07:44:35.751Z,1310
2019-01-12T07:45:05.752Z,1280
2019-01-12T07:45:35.755Z,1183
2019-01-12T07:46:05.831Z,1117
2019-01-12T07:46:35.892Z,1170
2019-01-12T07:47:05.827Z,1360
2019-01-12T07:47:35.913Z,1493
2019-01-12T07:48:05.901Z,1597
2019-01-12T07:48:35.974Z,1573
2019-01-12T07:49:05.964Z,1337
2019-01-12T07:49:36.031Z,1510
2019-01-12T07:50:06.079Z,1530
2019-01-12T07:50:36.091Z,1200
2019-01-12T07:51:06.154Z,1197
2019-01-12T07:51:36.121Z,1233
2019-01-12T07:52:06.194Z,1173
2019-01-12T07:52:36.217Z,1213
2019-01-12T07:53:06.251Z,1230
2019-01-12T07:53:36.272Z,1217
2019-01-12T07:54:06.320Z,1287
2019-01-12T07:54:36.339Z,1090
2019-01-12T07:55:06.377Z,1030
2019-01-12T07:55:36.405Z,733
2019-01-12T07:56:06.460Z,607
2019-01-12T07:56:36.461Z,627
2019-01-12T07:57:06.498Z,747
2019-01-12T07:57:36.487Z,820
2019-01-12T07:58:06.582Z,1113
2019-01-12T07:58:36.612Z,1307
2019-01-12T07:59:06.745Z,1300
2019-01-12T07:59:36.627Z,1027
2019-01-12T08:00:06.657Z,1287
2019-01-12T08:00:36.702Z,1633
2019-01-12T08:01:06.746Z,1807
2019-01-12T08:01:36.786Z,1757
2019-01-12T08:02:06.831Z,1503
2019-01-12T08:02:36.871Z,1477
2019-01-12T08:03:06.888Z,1587
2019-01-12T08:03:36.883Z,1597
2019-01-12T08:04:06.917Z,1267
2019-01-12T08:04:36.945Z,1137
2019-01-12T08:05:07.004Z,893
2019-01-12T08:05:37.004Z,857
2019-01-12T08:06:07.092Z,893
2019-01-12T08:06:37.040Z,1313
2019-01-12T08:07:07.105Z,1517
2019-01-12T08:07:37.133Z,1560
2019-01-12T08:08:07.167Z,1707
2019-01-12T08:08:37.210Z,1993
2019-01-12T08:09:07.197Z,2070
2019-01-12T08:09:37.379Z,2173
2019-01-12T08:10:07.280Z,2710
2019-01-12T08:10:37.301Z,3263
2019-01-12T08:11:07.338Z,2997
2019-01-12T08:11:37.378Z,2517
2019-01-12T08:12:07.377Z,3483
2019-01-12T08:12:37.417Z,4000
2019-01-12T08:13:07.472Z,3380
2019-01-12T08:13:37.548Z,3477
2019-01-12T08:14:07.496Z,3807
2019-01-12T08:14:37.601Z,2970
2019-01-12T08:15:07.577Z,2533
2019-01-12T08:15:37.598Z,2687
2019-01-12T08:16:07.643Z,2753
2019-01-12T08:16:37.660Z,3120
2019-01-12T08:17:07.680Z,3083
2019-01-12T08:17:37.725Z,3520
2019-01-12T08:18:07.731Z,4193
2019-01-12T08:18:37.815Z,3307
2019-01-12T08:19:07.817Z,2943
2019-01-12T08:19:37.833Z,2613
2019-01-12T08:20:07.853Z,3043
2019-01-12T08:20:37.897Z,3613
2019-01-12T08:21:07.915Z,3740
2019-01-12T08:21:37.976Z,3510
2019-01-12T08:22:08.024Z,3350
2019-01-12T08:22:38.046Z,2620
2019-01-12T08:23:08.043Z,2147
2019-01-12T08:23:38.082Z,2773
2019-01-12T08:24:08.116Z,2837
2019-01-12T08:24:38.186Z,2690
2019-01-12T08:25:08.157Z,2717
2019-01-12T08:25:38.242Z,2337
2019-01-12T08:26:08.259Z,2120
2019-01-12T08:26:38.270Z,1887
2019-01-12T08:27:08.325Z,1677
2019-01-12T08:27:38.372Z,1847
2019-01-12T08:28:08.360Z,2017
2019-01-12T08:28:38.434Z,2213
2019-01-12T08:29:08.444Z,2723
2019-01-12T08:29:38.524Z,3083
2019-01-12T08:30:08.570Z,3410
2019-01-12T08:30:38.600Z,3633
2019-01-12T08:31:08.668Z,3330
2019-01-12T08:31:38.666Z,3513
2019-01-12T08:32:09.113Z,4887
2019-01-12T08:32:38.665Z,4653
2019-01-12T08:33:08.668Z,4047
2019-01-12T08:33:38.740Z,3637
2019-01-12T08:34:08.711Z,3027
2019-01-12T08:34:38.827Z,2857
2019-01-12T08:35:09.039Z,3960
2019-01-12T08:35:38.905Z,4250
2019-01-12T08:36:08.860Z,4087
2019-01-12T08:36:38.976Z,4230
2019-01-12T08:37:08.901Z,4857
2019-01-12T08:37:38.966Z,5470
2019-01-12T08:38:08.963Z,4827
2019-01-12T08:38:39.068Z,4057
2019-01-12T08:39:09.014Z,4073
2019-01-12T08:39:39.155Z,3413
2019-01-12T08:40:09.111Z,3667
2019-01-12T08:40:39.213Z,3893
2019-01-12T08:41:09.214Z,3533
2019-01-12T08:41:39.212Z,3183
2019-01-12T08:42:09.205Z,3280
2019-01-12T08:42:39.289Z,2967
2019-01-12T08:43:09.270Z,2650
2019-01-12T08:43:39.438Z,1897
2019-01-12T08:44:09.571Z,1477
2019-01-12T08:44:39.410Z,1510
2019-01-12T08:45:09.510Z,1580
2019-01-12T08:45:39.479Z,1557
2019-01-12T08:46:09.783Z,1943
2019-01-12T08:46:39.588Z,2483
2019-01-12T08:47:09.588Z,2903
2019-01-12T08:47:39.616Z,3207
2019-01-12T08:48:09.626Z,3700
2019-01-12T08:48:39.620Z,3897
2019-01-12T08:49:09.685Z,3840
2019-01-12T08:49:39.729Z,3913
2019-01-12T08:50:09.772Z,3893
2019-01-12T08:50:39.823Z,4057
2019-01-12T08:51:09.852Z,4003
2019-01-12T08:51:39.861Z,3840
2019-01-12T08:52:09.850Z,3703
2019-01-12T08:52:39.917Z,3500
2019-01-12T08:53:09.904Z,3860
2019-01-12T08:53:39.975Z,3843
2019-01-12T08:54:10.046Z,3690
2019-01-12T08:54:40.042Z,4060
2019-01-12T08:55:10.100Z,4260
2019-01-12T08:55:40.107Z,4590
2019-01-12T08:56:10.107Z,5130
2019-01-12T08:56:40.162Z,4863
2019-01-12T08:57:10.154Z,4417
2019-01-12T08:57:40.234Z,4777
2019-01-12T08:58:10.216Z,4827
2019-01-12T08:58:40.301Z,4487
2019-01-12T08:59:10.280Z,4843
2019-01-12T08:59:40.341Z,4767
2019-01-12T09:00:10.412Z,4770
2019-01-12T09:00:40.362Z,4607
2019-01-12T09:01:10.396Z,4083
2019-01-12T09:01:40.421Z,4157
2019-01-12T09:02:10.459Z,4317
2019-01-12T09:02:40.564Z,4673
2019-01-12T09:03:10.545Z,5640
2019-01-12T09:03:40.549Z,6053
2019-01-12T09:04:10.568Z,6753
2019-01-12T09:04:43.474Z,6880
2019-01-12T09:05:10.670Z,6610
2019-01-12T09:05:40.746Z,7727
2019-01-12T09:06:10.716Z,8030
2019-01-12T09:06:40.724Z,8533
2019-01-12T09:07:10.761Z,9463
2019-01-12T09:07:40.832Z,9387
2019-01-12T09:08:10.824Z,9357
2019-01-12T09:08:40.851Z,8873
2019-01-12T09:09:10.864Z,8730
2019-01-12T09:09:40.929Z,9180
2019-01-12T09:10:10.943Z,9500
2019-01-12T09:10:41.007Z,9917
2019-01-12T09:11:10.988Z,10187
2019-01-12T09:11:41.080Z,10383
2019-01-12T09:12:11.086Z,10300
2019-01-12T09:12:41.143Z,10067
2019-01-12T09:13:11.126Z,9720
2019-01-12T09:13:41.209Z,9407
2019-01-12T09:14:11.182Z,9367
2019-01-12T09:14:41.314Z,9357
2019-01-12T09:15:11.287Z,9177
2019-01-12T09:15:41.323Z,8937
2019-01-12T09:16:11.343Z,8837
2019-01-12T09:16:41.354Z,8903
2019-01-12T09:17:11.419Z,9290
2019-01-12T09:17:41.442Z,9577
2019-01-12T09:18:11.466Z,9673
2019-01-12T09:18:41.509Z,9393
2019-01-12T09:19:11.530Z,9200
2019-01-12T09:19:41.573Z,8993
2019-01-12T09:20:11.582Z,8653
2019-01-12T09:20:41.634Z,8133
2019-01-12T09:21:11.662Z,8030
2019-01-12T09:21:41.682Z,8660
2019-01-12T09:22:11.702Z,9363
2019-01-12T09:22:41.747Z,9660
2019-01-12T09:23:11.781Z,9657
2019-01-12T09:23:41.802Z,9540
2019-01-12T09:24:11.841Z,9463
2019-01-12T09:24:41.916Z,9647
2019-01-12T09:25:11.888Z,10200
2019-01-12T09:25:41.939Z,10823
2019-01-12T09:26:11.924Z,11257
2019-01-12T09:26:44.910Z,11727
2019-01-12T09:27:12.028Z,12237
2019-01-12T09:27:42.061Z,12573
2019-01-12T09:28:12.086Z,12230
2019-01-12T09:28:42.127Z,11440
2019-01-12T09:29:12.141Z,10890
2019-01-12T09:29:42.194Z,11603
2019-01-12T09:30:12.215Z,11870
2019-01-12T09:30:48.276Z,11567
2019-01-12T09:31:12.247Z,11607
2019-01-12T09:31:42.292Z,12147
2019-01-12T09:32:12.313Z,11043
2019-01-12T09:32:42.386Z,8877
2019-01-12T09:33:12.409Z,8553
2019-01-12T09:33:42.419Z,9093
2019-01-12T09:34:12.465Z,9017
2019-01-12T09:34:42.474Z,9703
2019-01-12T09:35:12.505Z,11257
2019-01-12T09:35:42.534Z,11447
2019-01-12T09:36:12.569Z,12327
2019-01-12T09:36:42.603Z,12993
2019-01-12T09:37:12.663Z,12180
2019-01-12T09:37:42.661Z,10440
2019-01-12T09:38:12.683Z,9880
2019-01-12T09:38:42.729Z,10710
2019-01-12T09:39:12.743Z,10540
2019-01-12T09:39:42.783Z,9357
2019-01-12T09:40:12.824Z,9123
2019-01-12T09:40:42.860Z,9723
2019-01-12T09:41:12.840Z,10903
2019-01-12T09:41:42.935Z,11837
2019-01-12T09:42:12.935Z,12247
2019-01-12T09:42:43.008Z,13047
2019-01-12T09:43:12.979Z,15037
2019-01-12T09:43:43.045Z,17987
2019-01-12T09:44:13.052Z,20163
2019-01-12T09:44:43.112Z,20830
2019-01-12T09:45:13.082Z,20363
2019-01-12T09:45:43.195Z,18677
2019-01-12T09:46:13.190Z,15683
2019-01-12T09:46:43.211Z,13283
2019-01-12T09:47:13.249Z,12893
2019-01-12T09:47:43.318Z,11080
2019-01-12T09:48:13.306Z,8540
2019-01-12T09:48:43.373Z,8033
2019-01-12T09:49:13.326Z,8877
2019-01-12T09:49:43.403Z,9547
2019-01-12T09:50:13.415Z,9230
2019-01-12T09:50:43.486Z,8063
2019-01-12T09:51:13.503Z,6957
2019-01-12T09:51:43.513Z,5987
2019-01-12T09:52:13.524Z,5197
2019-01-12T09:52:43.625Z,4710
2019-01-12T09:53:13.594Z,4123
2019-01-12T09:53:43.628Z,3767
2019-01-12T09:54:13.668Z,3820
2019-01-12T09:54:43.733Z,4123
2019-01-12T09:55:13.716Z,4397
2019-01-12T09:55:43.770Z,4513
2019-01-12T09:56:13.765Z,4717
2019-01-12T09:56:43.844Z,5080
2019-01-12T09:57:13.820Z,5157
2019-01-12T09:57:43.867Z,4827
2019-01-12T09:58:13.924Z,4483
2019-01-12T09:58:43.933Z,4157
2019-01-12T09:59:13.988Z,3870
2019-01-12T09:59:44.034Z,3713
2019-01-12T10:00:14.002Z,3823
2019-01-12T10:00:44.051Z,4203
2019-01-12T10:01:14.087Z,4837
2019-01-12T10:01:44.149Z,5643
2019-01-12T10:02:14.125Z,6523
2019-01-12T10:02:44.215Z,7140
2019-01-12T10:03:14.267Z,7557
2019-01-12T10:03:44.231Z,7960
2019-01-12T10:04:14.316Z,8277
2019-01-12T10:04:44.352Z,8463
2019-01-12T10:05:14.374Z,8670
2019-01-12T10:05:44.437Z,8697
2019-01-12T10:06:14.374Z,8173
2019-01-12T10:06:44.455Z,7637
2019-01-12T10:07:14.477Z,7210
2019-01-12T10:07:44.491Z,6933
2019-01-12T10:08:14.522Z,7050
2019-01-12T10:08:44.586Z,7203
2019-01-12T10:09:14.601Z,6877
2019-01-12T10:09:44.711Z,6597
2019-01-12T10:10:14.668Z,6227
2019-01-12T10:10:44.659Z,5950
2019-01-12T10:11:14.706Z,6147
2019-01-12T10:11:44.769Z,6390
2019-01-12T10:12:14.780Z,6637
2019-01-12T10:12:44.843Z,6717
2019-01-12T10:13:14.898Z,6273
2019-01-12T10:13:44.956Z,6643
2019-01-12T10:14:14.894Z,7127
2019-01-12T10:14:45.049Z,7523
2019-01-12T10:15:15.007Z,7660
2019-01-12T10:15:45.013Z,7930
2019-01-12T10:16:15.050Z,8980
2019-01-12T10:16:45.073Z,9493
2019-01-12T10:17:15.155Z,9603
2019-01-12T10:17:45.100Z,9613
2019-01-12T10:18:15.176Z,9733
2019-01-12T10:18:45.206Z,9277
2019-01-12T10:19:15.173Z,9733
2019-01-12T10:19:45.281Z,11550
2019-01-12T10:20:15.324Z,13087
2019-01-12T10:20:45.314Z,13540
2019-01-12T10:21:15.357Z,13940
2019-01-12T10:21:45.394Z,14957
2019-01-12T10:22:15.442Z,15890
2019-01-12T10:22:45.454Z,15937
2019-01-12T10:23:15.476Z,15507
2019-01-12T10:23:45.510Z,15253
2019-01-12T10:24:15.549Z,15367
2019-01-12T10:24:45.605Z,15877
2019-01-12T10:25:15.601Z,16393
2019-01-12T10:25:45.592Z,16380
2019-01-12T10:26:15.692Z,16177
2019-01-12T10:26:45.703Z,16170
2019-01-12T10:27:15.753Z,17113
2019-01-12T10:27:45.764Z,17807
2019-01-12T10:28:15.812Z,16987
2019-01-12T10:28:45.854Z,15253
2019-01-12T10:29:15.807Z,14377
2019-01-12T10:29:45.919Z,14540
2019-01-12T10:30:15.908Z,14947
2019-01-12T10:30:45.925Z,14243
2019-01-12T10:31:15.966Z,13880
2019-01-12T10:31:46.013Z,14103
2019-01-12T10:32:16.031Z,13147
2019-01-12T10:32:46.053Z,11477
2019-01-12T10:33:16.091Z,10453
2019-01-12T10:33:46.141Z,10947
2019-01-12T10:34:16.127Z,11587
2019-01-12T10:34:46.200Z,12117
2019-01-12T10:35:16.277Z,12257
2019-01-12T10:35:46.240Z,12750
2019-01-12T10:36:16.374Z,13340
2019-01-12T10:36:46.292Z,13193
2019-01-12T10:37:16.339Z,12403
2019-01-12T10:37:46.364Z,11917
2019-01-12T10:38:16.370Z,12090
2019-01-12T10:38:46.424Z,12033
2019-01-12T10:39:17.944Z,12190
2019-01-12T10:39:46.530Z,11433
2019-01-12T10:40:16.531Z,10470
2019-01-12T10:40:46.524Z,10193
2019-01-12T10:41:16.588Z,11277
2019-01-12T10:41:46.596Z,11653
2019-01-12T10:42:16.622Z,11820
2019-01-12T10:42:46.636Z,11657
2019-01-12T10:43:16.666Z,11763
2019-01-12T10:43:46.752Z,11500
2019-01-12T10:44:16.715Z,10637
2019-01-12T10:44:46.783Z,9760
2019-01-12T10:45:16.769Z,9490
2019-01-12T10:45:46.820Z,9713
2019-01-12T10:46:16.830Z,10457
2019-01-12T10:46:46.881Z,10137
2019-01-12T10:47:16.900Z,9443
2019-01-12T10:47:46.958Z,9693
2019-01-12T10:48:16.957Z,10557
2019-01-12T10:48:47.016Z,12260
2019-01-12T10:49:17.020Z,14100
2019-01-12T10:49:47.107Z,14090
2019-01-12T10:50:17.164Z,12550
2019-01-12T10:50:47.141Z,10797
2019-01-12T10:51:17.192Z,9813
2019-01-12T10:51:47.382Z,9590
2019-01-12T10:52:17.241Z,9640
2019-01-12T10:52:47.273Z,9437
2019-01-12T10:53:17.421Z,9073
2019-01-12T10:53:47.338Z,8607
2019-01-12T10:54:17.352Z,8067
2019-01-12T10:54:47.394Z,7953
2019-01-12T10:55:17.423Z,8227
2019-01-12T10:55:47.471Z,8750
2019-01-12T10:56:17.462Z,8637
2019-01-12T10:56:47.572Z,8520
2019-01-12T10:57:17.548Z,8510
2019-01-12T10:57:47.588Z,8580
2019-01-12T10:58:17.609Z,8430
2019-01-12T10:58:47.673Z,8357
2019-01-12T10:59:17.671Z,7570
2019-01-12T10:59:47.725Z,6803
2019-01-12T11:00:17.723Z,6467
2019-01-12T11:00:47.794Z,6727
2019-01-12T11:01:17.793Z,7267
2019-01-12T11:01:47.800Z,7723
2019-01-12T11:02:17.818Z,8543
2019-01-12T11:02:47.948Z,9160
2019-01-12T11:03:18.059Z,8533
2019-01-12T11:03:47.981Z,8020
2019-01-12T11:04:17.964Z,7623
2019-01-12T11:04:48.036Z,8190
2019-01-12T11:05:18.002Z,7743
2019-01-12T11:05:48.078Z,6430
2019-01-12T11:06:18.061Z,5837
2019-01-12T11:06:48.206Z,6177
2019-01-12T11:07:18.155Z,6480
2019-01-12T11:07:48.236Z,6417
2019-01-12T11:08:18.222Z,5973
2019-01-12T11:08:48.315Z,5600
2019-01-12T11:09:18.280Z,5327
2019-01-12T11:09:48.340Z,5330
2019-01-12T11:10:18.311Z,5273
2019-01-12T11:10:48.414Z,5207
2019-01-12T11:11:18.438Z,5077
2019-01-12T11:11:48.505Z,4633
2019-01-12T11:12:18.464Z,4817
2019-01-12T11:12:48.499Z,4807
2019-01-12T11:13:18.546Z,4650
2019-01-12T11:13:48.607Z,4263
2019-01-12T11:14:18.575Z,4053
2019-01-12T11:14:48.671Z,4557
2019-01-12T11:15:18.652Z,4877
2019-01-12T11:15:48.728Z,4763
2019-01-12T11:16:18.716Z,4907
2019-01-12T11:16:48.718Z,5173
2019-01-12T11:17:18.771Z,5820
2019-01-12T11:17:48.781Z,7127
2019-01-12T11:18:18.826Z,7967
2019-01-12T11:18:48.898Z,7963
2019-01-12T11:19:18.878Z,7587
2019-01-12T11:19:49.026Z,7553
2019-01-12T11:20:18.941Z,7380
2019-01-12T11:20:49.014Z,6923
2019-01-12T11:21:19.028Z,7217
2019-01-12T11:21:49.098Z,7033
2019-01-12T11:22:19.079Z,6433
2019-01-12T11:22:49.156Z,5983
2019-01-12T11:23:19.179Z,5893
2019-01-12T11:23:49.171Z,6360
2019-01-12T11:24:19.190Z,6417
2019-01-12T11:24:49.246Z,6633
2019-01-12T11:25:19.270Z,7893
2019-01-12T11:25:49.338Z,9180
2019-01-12T11:26:19.489Z,10993
2019-01-12T11:26:49.393Z,11437
2019-01-12T11:27:19.400Z,10753
2019-01-12T11:27:49.446Z,10963
2019-01-12T11:28:19.514Z,11967
2019-01-12T11:28:49.541Z,12683
2019-01-12T11:29:19.493Z,13633
2019-01-12T11:29:49.568Z,13210
2019-01-12T11:30:19.562Z,12443
2019-01-12T11:30:49.622Z,11370
2019-01-12T11:31:19.986Z,9967
2019-01-12T11:31:49.668Z,9337
2019-01-12T11:32:19.664Z,8960
2019-01-12T11:32:49.764Z,8663
2019-01-12T11:33:19.843Z,8657
2019-01-12T11:33:49.763Z,7333
2019-01-12T11:34:19.797Z,7050
2019-01-12T11:34:49.860Z,6400
2019-01-12T11:35:19.859Z,5660
2019-01-12T11:35:49.883Z,6317
2019-01-12T11:36:19.912Z,6617
2019-01-12T11:36:49.961Z,6357
2019-01-12T11:37:19.975Z,6897
2019-01-12T11:37:50.006Z,7543
2019-01-12T11:38:20.020Z,8053
2019-01-12T11:38:50.097Z,6650
2019-01-12T11:39:20.106Z,6663
2019-01-12T11:39:50.239Z,6097
2019-01-12T11:40:20.200Z,5840
2019-01-12T11:40:50.265Z,5717
2019-01-12T11:41:20.235Z,5607
2019-01-12T11:41:50.307Z,5950
2019-01-12T11:42:20.297Z,5933
2019-01-12T11:42:50.402Z,6623
2019-01-12T11:43:20.371Z,6377
2019-01-12T11:43:50.476Z,6717
2019-01-12T11:44:20.457Z,7040
2019-01-12T11:44:50.535Z,6653
2019-01-12T11:45:20.459Z,6357
2019-01-12T11:45:50.730Z,6003
2019-01-12T11:46:20.523Z,5860
2019-01-12T11:46:50.607Z,5803
2019-01-12T11:47:20.592Z,5690
2019-01-12T11:47:50.665Z,5327
2019-01-12T11:48:20.687Z,5227
2019-01-12T11:48:50.730Z,5990
2019-01-12T11:49:20.779Z,5633
2019-01-12T11:49:50.863Z,4763
2019-01-12T11:50:20.783Z,4300
2019-01-12T11:50:50.860Z,4573
2019-01-12T11:51:20.826Z,4797
2019-01-12T11:51:50.912Z,4157
2019-01-12T11:52:20.936Z,3823
2019-01-12T11:52:50.962Z,4497
2019-01-12T11:53:20.976Z,5050
2019-01-12T11:53:51.028Z,5000
2019-01-12T11:54:21.060Z,4943
2019-01-12T11:54:51.153Z,5070
2019-01-12T11:55:21.118Z,5420
2019-01-12T11:55:51.131Z,5783
2019-01-12T11:56:21.158Z,5433
2019-01-12T11:56:51.214Z,5400
2019-01-12T11:57:21.213Z,5890
2019-01-12T11:57:51.272Z,6773
2019-01-12T11:58:21.309Z,7570
2019-01-12T11:58:51.359Z,8127
2019-01-12T11:59:21.366Z,7783
2019-01-12T11:59:51.415Z,7930
2019-01-12T12:00:21.482Z,8113
2019-01-12T12:00:51.454Z,8197
2019-01-12T12:01:21.472Z,8403
2019-01-12T12:01:51.522Z,8183
2019-01-12T12:02:21.506Z,7630
2019-01-12T12:02:51.570Z,7237
2019-01-12T12:03:21.610Z,6483
2019-01-12T12:03:51.649Z,5517
2019-01-12T12:04:21.681Z,4987
2019-01-12T12:04:51.756Z,5230
2019-01-12T12:05:21.735Z,6077
2019-01-12T12:05:51.754Z,7140
2019-01-12T12:06:21.794Z,7633
2019-01-12T12:06:51.872Z,7460
2019-01-12T12:07:21.864Z,7317
2019-01-12T12:07:51.883Z,6870
2019-01-12T12:08:21.916Z,6350
2019-01-12T12:08:51.963Z,5970
2019-01-12T12:09:22.004Z,5737
2019-01-12T12:09:52.080Z,5233
2019-01-12T12:10:22.054Z,5037
2019-01-12T12:10:52.066Z,4900
2019-01-12T12:11:22.090Z,4890
2019-01-12T12:11:52.165Z,4893
2019-01-12T12:12:22.149Z,4727
2019-01-12T12:12:52.195Z,4967
2019-01-12T12:13:22.180Z,5153
2019-01-12T12:13:52.378Z,5213
2019-01-12T12:14:22.297Z,5070
2019-01-12T12:14:52.398Z,5027
2019-01-12T12:15:22.346Z,5050
2019-01-12T12:15:52.457Z,5077
2019-01-12T12:16:22.447Z,5327
2019-01-12T12:16:52.414Z,5467
2019-01-12T12:17:22.475Z,5560
2019-01-12T12:17:52.541Z,5723
2019-01-12T12:18:22.517Z,5917
2019-01-12T12:18:52.535Z,6003
2019-01-12T12:19:22.593Z,5930
2019-01-12T12:19:52.638Z,6353
2019-01-12T12:20:22.637Z,6573
2019-01-12T12:20:52.658Z,6673
2019-01-12T12:21:22.670Z,6533
2019-01-12T12:21:52.788Z,6257
2019-01-12T12:22:22.737Z,6040
2019-01-12T12:22:52.775Z,5797
2019-01-12T12:23:22.813Z,5507
2019-01-12T12:23:52.837Z,5393
2019-01-12T12:24:22.858Z,5080
2019-01-12T12:24:52.930Z,4687
2019-01-12T12:25:22.922Z,4800
2019-01-12T12:25:52.973Z,5063
2019-01-12T12:26:22.979Z,4863
2019-01-12T12:26:53.034Z,4740
2019-01-12T12:27:26.035Z,4570
2019-01-12T12:27:53.110Z,4347
2019-01-12T12:28:23.099Z,4167
2019-01-12T12:28:53.241Z,4500
2019-01-12T12:29:23.211Z,4533
2019-01-12T12:29:53.270Z,5113
2019-01-12T12:30:23.245Z,5250
2019-01-12T12:30:53.329Z,5247
2019-01-12T12:31:23.323Z,4903
2019-01-12T12:31:53.398Z,4670
2019-01-12T12:32:23.398Z,4397
2019-01-12T12:32:53.438Z,4463
2019-01-12T12:33:23.468Z,4140
2019-01-12T12:33:53.519Z,4513
2019-01-12T12:34:23.496Z,4757
2019-01-12T12:34:53.614Z,4007
2019-01-12T12:35:23.706Z,4610
2019-01-12T12:35:53.610Z,5293
2019-01-12T12:36:23.642Z,6480
2019-01-12T12:36:53.677Z,6257
2019-01-12T12:37:23.684Z,5887
2019-01-12T12:37:53.759Z,5820
2019-01-12T12:38:23.740Z,6003
2019-01-12T12:38:53.812Z,6533
2019-01-12T12:39:23.816Z,6883
2019-01-12T12:39:53.902Z,6587
2019-01-12T12:40:23.867Z,6473
2019-01-12T12:40:53.939Z,6857
2019-01-12T12:41:23.932Z,7120
2019-01-12T12:41:53.997Z,6513
2019-01-12T12:42:23.982Z,6663
2019-01-12T12:42:55.286Z,5800
2019-01-12T12:43:54.155Z,5747
2019-01-12T12:44:24.078Z,5883
2019-01-12T12:44:54.176Z,6027
2019-01-12T12:45:24.197Z,6517
2019-01-12T12:45:54.199Z,5483
2019-01-12T12:46:24.276Z,4803
2019-01-12T12:46:54.246Z,5420
2019-01-12T12:47:24.291Z,6023
2019-01-12T12:47:54.444Z,5557
2019-01-12T12:48:25.549Z,5000
2019-01-12T12:48:54.429Z,4923
2019-01-12T12:49:24.462Z,5317
2019-01-12T12:49:54.542Z,5120
2019-01-12T12:50:24.469Z,4943
2019-01-12T12:50:54.548Z,4687
2019-01-12T12:51:24.575Z,3973
2019-01-12T12:51:54.604Z,3917
2019-01-12T12:52:24.644Z,3843
2019-01-12T12:52:54.666Z,4130
2019-01-12T12:53:24.635Z,4240
2019-01-12T12:53:54.726Z,4690
2019-01-12T12:54:24.755Z,5137
2019-01-12T12:54:54.841Z,5380
2019-01-12T12:55:24.830Z,5383
2019-01-12T12:55:54.856Z,5463
2019-01-12T12:56:24.820Z,5910
2019-01-12T12:56:54.926Z,6573
2019-01-12T12:57:24.942Z,6910
2019-01-12T12:57:54.971Z,7107
2019-01-12T12:58:25.242Z,7643
2019-01-12T12:58:55.084Z,6747
2019-01-12T12:59:25.069Z,6340
2019-01-12T12:59:55.121Z,6407
2019-01-12T13:00:25.065Z,6697
2019-01-12T13:00:55.112Z,6970
2019-01-12T13:01:25.211Z,6820
2019-01-12T13:01:55.177Z,7010
2019-01-12T13:02:25.274Z,6647
2019-01-12T13:02:55.293Z,6683
2019-01-12T13:03:25.324Z,6877
2019-01-12T13:03:55.347Z,6147
2019-01-12T13:04:25.376Z,5547
2019-01-12T13:04:55.402Z,5150
2019-01-12T13:05:25.437Z,4673
2019-01-12T13:05:55.438Z,4223
2019-01-12T13:06:25.478Z,3747
2019-01-12T13:06:55.507Z,3683
2019-01-12T13:07:25.511Z,3673
2019-01-12T13:07:55.570Z,4080
2019-01-12T13:08:25.579Z,3983
2019-01-12T13:08:55.658Z,4227
2019-01-12T13:09:25.646Z,5220
2019-01-12T13:09:55.764Z,5760
2019-01-12T13:10:25.706Z,6510
2019-01-12T13:10:55.735Z,6827
2019-01-12T13:11:25.778Z,6437
2019-01-12T13:11:55.794Z,6457
2019-01-12T13:12:25.829Z,6547
2019-01-12T13:12:55.855Z,7570
2019-01-12T13:13:25.884Z,7063
2019-01-12T13:13:55.984Z,6383
2019-01-12T13:14:25.936Z,6203
2019-01-12T13:14:56.034Z,5760
2019-01-12T13:15:25.990Z,5323
2019-01-12T13:15:56.079Z,5097
2019-01-12T13:16:26.067Z,4550
2019-01-12T13:16:56.094Z,4937
2019-01-12T13:17:26.177Z,4610
2019-01-12T13:17:56.201Z,4337
2019-01-12T13:18:26.224Z,4967
2019-01-12T13:18:56.261Z,5357
2019-01-12T13:19:26.251Z,5703
2019-01-12T13:19:56.350Z,6543
2019-01-12T13:20:26.346Z,7053
2019-01-12T13:20:56.405Z,7603
2019-01-12T13:21:26.375Z,7123
2019-01-12T13:21:56.455Z,6863
2019-01-12T13:22:26.464Z,6883
2019-01-12T13:22:56.496Z,7140
2019-01-12T13:23:26.530Z,7277
2019-01-12T13:23:56.566Z,7207
2019-01-12T13:24:26.575Z,6493
2019-01-12T13:24:56.705Z,6400
2019-01-12T13:25:26.648Z,7533
2019-01-12T13:25:56.681Z,7677
2019-01-12T13:26:26.691Z,8067
2019-01-12T13:26:56.734Z,7663
2019-01-12T13:27:26.740Z,7603
2019-01-12T13:27:56.801Z,6857
2019-01-12T13:28:26.828Z,6260
2019-01-12T13:28:56.927Z,6073
2019-01-12T13:29:26.898Z,6077
2019-01-12T13:29:56.950Z,5680
2019-01-12T13:30:26.905Z,5780
2019-01-12T13:30:57.027Z,5597
2019-01-12T13:31:26.975Z,5557
2019-01-12T13:31:57.035Z,5283
2019-01-12T13:32:27.073Z,4687
2019-01-12T13:32:57.166Z,4730
2019-01-12T13:33:27.162Z,4377
2019-01-12T13:33:57.239Z,4263
2019-01-12T13:34:27.197Z,4220
2019-01-12T13:34:57.337Z,3917
2019-01-12T13:35:27.263Z,4007
2019-01-12T13:35:57.321Z,3960
2019-01-12T13:36:27.318Z,4180
2019-01-12T13:36:57.349Z,4203
2019-01-12T13:37:27.387Z,4170
2019-01-12T13:37:57.471Z,4477
2019-01-12T13:38:27.444Z,4163
2019-01-12T13:38:57.513Z,3887
2019-01-12T13:39:31.943Z,3707
2019-01-12T13:39:57.604Z,3930
2019-01-12T13:40:27.523Z,3920
2019-01-12T13:40:57.632Z,4223
2019-01-12T13:41:27.637Z,4193
2019-01-12T13:41:57.705Z,4327
2019-01-12T13:42:27.692Z,4460